Schedule Details


Flight Number: CTN321
Departure: Ruzyne (LKPR) at 10:40
Arrival: Franjo Tudman (LDZA) at 12:00
Route: VOZ Z21 PISAM DCT MUREG DCT PETOV

Weather Information
LKPR 172230Z 13010KT CAVOK 20/12 Q1017 NOSIG
LDZA 172230Z 00000KT CAVOK 19/15 Q1017 NOSIG
Schedule Frequency

Route Map